createdAt,value
2022-09-01T00:02:40.751Z,99411.34
2022-09-01T00:05:27.644Z,99422.59
2022-09-01T00:08:16.270Z,99392.09
2022-09-01T00:11:05.632Z,99348.44
2022-09-01T00:13:54.162Z,99321.56
2022-09-01T00:16:41.077Z,99353.59
2022-09-01T00:19:29.576Z,99297.84
2022-09-01T00:22:16.563Z,99324.13
2022-09-01T00:25:06.404Z,99315.88
2022-09-01T00:27:54.177Z,99271.06
2022-09-01T00:30:41.261Z,99274.44
2022-09-01T00:33:28.175Z,99283.53
2022-09-01T00:36:16.250Z,99281.69
2022-09-01T00:39:05.751Z,99247.00
2022-09-01T00:41:52.688Z,99275.78
2022-09-01T00:44:39.552Z,99288.75
2022-09-01T00:47:26.448Z,99269.38
2022-09-01T00:50:16.805Z,99284.38
2022-09-01T00:53:05.852Z,99322.41
2022-09-01T00:55:52.795Z,99271.22
2022-09-01T00:58:42.877Z,99332.13
2022-09-01T01:01:29.797Z,99366.97
2022-09-01T01:04:16.882Z,99332.97
2022-09-01T01:07:03.996Z,99304.72
2022-09-01T01:09:51.706Z,99320.41
2022-09-01T01:12:40.444Z,99312.63
2022-09-01T01:15:27.758Z,99362.59
2022-09-01T01:18:17.000Z,99415.28
2022-09-01T01:21:52.984Z,99385.03
2022-09-01T01:24:40.051Z,99370.88
2022-09-01T01:27:32.452Z,99393.47
2022-09-01T01:30:25.431Z,99388.44
2022-09-01T01:33:13.531Z,99391.56
2022-09-01T01:36:03.604Z,99381.34
2022-09-01T01:38:50.568Z,99356.22
2022-09-01T01:41:44.087Z,99320.03
2022-09-01T01:44:32.053Z,99370.81
2022-09-01T01:47:21.885Z,99369.97
2022-09-01T01:50:09.447Z,99378.16
2022-09-01T01:52:59.958Z,99392.41
2022-09-01T01:55:50.618Z,99390.34
2022-09-01T01:58:40.473Z,99407.06
2022-09-01T02:01:32.094Z,99412.28
2022-09-01T02:04:20.138Z,99409.59
2022-09-01T02:07:12.733Z,99410.72
2022-09-01T02:10:01.869Z,99408.69
2022-09-01T02:12:49.265Z,99414.31
2022-09-01T02:15:45.688Z,99413.47
2022-09-01T02:18:38.117Z,99399.84
2022-09-01T02:21:27.681Z,99385.84
2022-09-01T02:24:15.603Z,99360.63
2022-09-01T02:27:02.840Z,99369.09
2022-09-01T02:29:55.374Z,99371.00
2022-09-01T02:32:47.791Z,99356.31
2022-09-01T02:35:17.011Z,99345.41
2022-09-01T02:37:49.398Z,99336.81
2022-09-01T02:40:16.319Z,99373.00
2022-09-01T02:42:47.927Z,99370.16
2022-09-01T02:45:16.215Z,99349.47
2022-09-01T02:47:48.447Z,99354.56
2022-09-01T02:50:17.040Z,99354.84
2022-09-01T02:52:49.368Z,99319.00
2022-09-01T02:55:22.039Z,99321.53
2022-09-01T02:57:52.278Z,99301.66
2022-09-01T03:00:33.432Z,99316.00
2022-09-01T03:03:01.897Z,99311.09
2022-09-01T03:05:31.028Z,99300.94
2022-09-01T03:08:00.569Z,99279.38
2022-09-01T03:10:35.385Z,99267.94
2022-09-01T03:13:06.551Z,99241.84
2022-09-01T03:15:34.020Z,99237.91
2022-09-01T03:18:05.250Z,99256.41
2022-09-01T03:20:34.115Z,99253.16
2022-09-01T03:23:02.661Z,99240.38
2022-09-01T03:25:32.196Z,99197.91
2022-09-01T03:28:03.230Z,99172.03
2022-09-01T03:30:31.990Z,99202.72
2022-09-01T03:32:58.968Z,99149.03
2022-09-01T03:35:28.355Z,99087.84
2022-09-01T03:37:59.275Z,99077.56
2022-09-01T03:40:29.952Z,99083.97
2022-09-01T03:42:59.000Z,99097.19
2022-09-01T03:45:25.982Z,99068.31
2022-09-01T03:47:54.328Z,99054.81
2022-09-01T03:50:28.438Z,99053.44
2022-09-01T03:53:00.399Z,99058.09
2022-09-01T03:55:34.333Z,99059.34
2022-09-01T03:58:11.787Z,99056.25
2022-09-01T04:00:42.597Z,99043.78
2022-09-01T04:03:28.379Z,99043.72
2022-09-01T04:05:58.654Z,99029.75
2022-09-01T04:08:32.391Z,99025.38
2022-09-01T04:11:05.432Z,99019.97
2022-09-01T04:13:39.303Z,99018.34
2022-09-01T04:16:29.934Z,99012.94
2022-09-01T04:18:56.602Z,99007.94
2022-09-01T04:21:23.160Z,99020.44
2022-09-01T04:23:57.993Z,99011.16
2022-09-01T04:26:26.748Z,99013.09
2022-09-01T04:28:54.012Z,99021.94
2022-09-01T04:31:22.087Z,99045.84
2022-09-01T04:33:55.278Z,99053.59
2022-09-01T04:36:33.906Z,99069.22
2022-09-01T04:39:08.665Z,99072.38
2022-09-01T04:41:42.518Z,99073.72
2022-09-01T04:44:16.760Z,99093.59
2022-09-01T04:46:50.564Z,99107.25
2022-09-01T04:49:20.862Z,99087.00
2022-09-01T04:51:53.664Z,99099.81
2022-09-01T04:54:24.504Z,99114.06
2022-09-01T04:56:55.930Z,99127.09
2022-09-01T04:59:27.326Z,99112.47
2022-09-01T05:02:00.451Z,99121.50
2022-09-01T05:04:33.657Z,99115.91
2022-09-01T05:07:01.802Z,99126.50
2022-09-01T05:09:37.812Z,99106.41
2022-09-01T05:12:29.427Z,99105.59
2022-09-01T05:14:58.285Z,99141.03
2022-09-01T05:17:29.095Z,99144.06
2022-09-01T05:19:58.546Z,99135.41
2022-09-01T05:22:26.972Z,99214.69
2022-09-01T05:25:11.669Z,99238.53
2022-09-01T05:27:41.607Z,99260.19
2022-09-01T05:30:08.828Z,99291.06
2022-09-01T05:32:39.864Z,99320.63
2022-09-01T05:35:09.163Z,99328.91
2022-09-01T05:37:41.702Z,99342.06
2022-09-01T05:40:16.038Z,99370.91
2022-09-01T05:42:44.626Z,99344.34
2022-09-01T05:45:11.925Z,99175.22
2022-09-01T05:47:42.227Z,98929.22
2022-09-01T05:50:14.534Z,98919.47
2022-09-01T05:52:44.436Z,98930.28
2022-09-01T05:55:15.140Z,99117.63
2022-09-01T05:57:43.195Z,99215.03
2022-09-01T06:00:14.389Z,99238.97
2022-09-01T06:02:42.857Z,99280.69
2022-09-01T06:05:15.173Z,99305.91
2022-09-01T06:07:42.967Z,99241.88
2022-09-01T06:10:14.603Z,99256.00
2022-09-01T06:12:41.517Z,99238.44
2022-09-01T06:15:15.656Z,99167.31
2022-09-01T06:17:47.213Z,98975.09
2022-09-01T06:20:18.086Z,98787.03
2022-09-01T06:22:47.548Z,98867.97
2022-09-01T06:25:17.291Z,98883.84
2022-09-01T06:27:48.045Z,98943.09
2022-09-01T06:30:26.107Z,99206.72
2022-09-01T06:33:02.732Z,99036.94
2022-09-01T06:35:33.904Z,99104.00
2022-09-01T06:38:03.157Z,99197.03
2022-09-01T06:40:41.499Z,99234.41
2022-09-01T06:43:10.561Z,99245.41
2022-09-01T06:45:49.604Z,98981.09
2022-09-01T06:48:17.810Z,98963.59
2022-09-01T06:51:17.730Z,99009.91
2022-09-01T06:53:35.278Z,98836.53
2022-09-01T06:56:07.121Z,98886.03
2022-09-01T06:58:34.993Z,99085.38
2022-09-01T07:01:07.265Z,99007.38
2022-09-01T07:03:37.140Z,99172.91
2022-09-01T07:09:20.066Z,98520.09
2022-09-01T07:12:28.141Z,98134.97
2022-09-01T07:17:52.211Z,98144.53
2022-09-01T07:20:35.668Z,98102.16
2022-09-01T07:23:05.662Z,98149.34
2022-09-01T07:25:35.768Z,98273.56
2022-09-01T07:28:40.343Z,98314.41
2022-09-01T07:45:47.223Z,98117.53
2022-09-01T07:48:37.230Z,98133.03
2022-09-01T07:54:02.287Z,98108.13
2022-09-01T07:56:30.242Z,98125.94
2022-09-01T07:58:59.450Z,98107.97
2022-09-01T08:01:27.978Z,98127.03
2022-09-01T08:03:59.413Z,98205.31
2022-09-01T08:06:27.965Z,98236.13
2022-09-01T08:08:58.389Z,98100.72
2022-09-01T08:14:18.213Z,98215.75
2022-09-01T08:16:55.376Z,98184.78
2022-09-01T08:19:23.006Z,98530.03
2022-09-01T08:22:11.290Z,98540.38
2022-09-01T08:24:53.008Z,98545.75
2022-09-01T08:27:22.714Z,98498.31
2022-09-01T08:29:49.410Z,98608.00
2022-09-01T08:32:20.895Z,98724.25
2022-09-01T08:34:47.649Z,98710.75
2022-09-01T08:37:14.230Z,98708.06
2022-09-01T08:39:43.046Z,98725.56
2022-09-01T08:42:48.356Z,98672.38
2022-09-01T08:45:26.763Z,98710.94
2022-09-01T08:50:55.216Z,98741.25
2022-09-01T08:54:04.168Z,98740.81
2022-09-01T08:56:36.129Z,98758.47
2022-09-01T08:59:06.309Z,98729.94
2022-09-01T09:02:11.931Z,98695.53
2022-09-01T09:04:59.287Z,98724.28
2022-09-01T09:07:34.420Z,98704.34
2022-09-01T09:10:24.181Z,98741.31
2022-09-01T09:13:19.933Z,98661.38
2022-09-01T09:16:14.225Z,98712.38
2022-09-01T09:18:59.561Z,98714.81
2022-09-01T09:21:35.306Z,98511.75
2022-09-01T09:24:29.197Z,98665.97
2022-09-01T09:27:06.108Z,98707.75
2022-09-01T09:29:33.828Z,98726.84
2022-09-01T09:32:39.477Z,98686.06
2022-09-01T09:35:48.280Z,98667.31
2022-09-01T09:38:28.893Z,98737.69
2022-09-01T09:41:20.524Z,98745.84
2022-09-01T09:44:13.589Z,98697.00
2022-09-01T09:46:43.647Z,98705.63
2022-09-01T09:49:10.367Z,98315.84
2022-09-01T09:51:38.736Z,98218.06
2022-09-01T09:54:27.397Z,98295.47
2022-09-01T09:57:08.056Z,98401.19
2022-09-01T09:59:59.080Z,98494.06
2022-09-01T10:02:33.377Z,98184.34
2022-09-01T10:05:48.672Z,98266.81
2022-09-01T10:08:45.446Z,98420.47
2022-09-01T10:11:35.626Z,98499.00
2022-09-01T10:14:06.753Z,98476.25
2022-09-01T10:16:37.490Z,98573.81
2022-09-01T10:19:12.596Z,98539.78
2022-09-01T10:21:45.101Z,98512.44
2022-09-01T10:24:31.791Z,98560.34
2022-09-01T10:27:03.200Z,98658.50
2022-09-01T10:30:12.132Z,98653.53
2022-09-01T10:32:50.651Z,98695.47
2022-09-01T10:35:31.313Z,98651.41
2022-09-01T10:38:06.796Z,98658.44
2022-09-01T10:40:43.763Z,98631.59
2022-09-01T10:43:22.809Z,98623.59
2022-09-01T10:45:57.669Z,98647.09
2022-09-01T10:48:33.684Z,98644.53
2022-09-01T10:51:19.090Z,98677.09
2022-09-01T10:53:47.165Z,98597.88
2022-09-01T10:56:35.479Z,98604.56
2022-09-01T10:59:37.248Z,98609.81
2022-09-01T11:02:27.176Z,98598.00
2022-09-01T11:04:54.469Z,98533.59
2022-09-01T11:07:44.534Z,98386.97
2022-09-01T11:10:35.359Z,98399.34
2022-09-01T11:13:29.906Z,98301.47
2022-09-01T11:15:58.394Z,98300.22
2022-09-01T11:18:33.338Z,98328.75
2022-09-01T11:21:30.784Z,98388.47
2022-09-01T11:24:34.910Z,98422.53
2022-09-01T11:27:14.320Z,98303.00
2022-09-01T11:29:52.926Z,98285.34
2022-09-01T11:32:34.920Z,98276.41
2022-09-01T11:35:06.900Z,98316.34
2022-09-01T11:37:33.713Z,98309.03
2022-09-01T11:40:08.024Z,98351.84
2022-09-01T11:42:46.645Z,98378.81
2022-09-01T11:45:21.923Z,98346.56
2022-09-01T11:47:58.460Z,98334.00
2022-09-01T11:50:34.705Z,98310.72
2022-09-01T11:53:05.566Z,98161.00
2022-09-01T11:55:36.110Z,98112.56
2022-09-01T11:58:04.152Z,98057.16
2022-09-01T12:00:38.402Z,98019.00
2022-09-01T12:03:25.018Z,98040.50
2022-09-01T12:05:59.457Z,98057.94
2022-09-01T12:08:29.208Z,98049.59
2022-09-01T12:11:30.341Z,98097.78
2022-09-01T12:13:56.849Z,98081.50
2022-09-01T12:16:23.471Z,98094.75
2022-09-01T12:18:55.433Z,98066.41
2022-09-01T12:21:43.621Z,98087.97
2022-09-01T12:24:22.156Z,98049.81
2022-09-01T12:26:51.683Z,98104.50
2022-09-01T12:29:18.536Z,98103.31
2022-09-01T12:31:50.271Z,98114.22
2022-09-01T12:34:46.560Z,98075.59
2022-09-01T12:37:17.469Z,98009.75
2022-09-01T12:39:46.788Z,98055.72
2022-09-01T12:42:19.396Z,98122.94
2022-09-01T12:44:46.851Z,98149.06
2022-09-01T12:47:36.565Z,98144.22
2022-09-01T12:50:12.265Z,98134.19
2022-09-01T12:52:59.337Z,98172.91
2022-09-01T12:58:25.679Z,98089.88
2022-09-01T13:01:11.944Z,98074.16
2022-09-01T13:04:21.423Z,98109.97
2022-09-01T13:06:49.761Z,98113.19
2022-09-01T13:09:18.544Z,98147.78
2022-09-01T13:14:35.121Z,98105.41
2022-09-01T13:17:04.206Z,98116.50
2022-09-01T13:19:35.263Z,98123.34
2022-09-01T13:22:02.178Z,98072.00
2022-09-01T13:24:31.944Z,98082.75
2022-09-01T13:29:46.535Z,98142.00
2022-09-01T13:32:18.801Z,98163.41
2022-09-01T13:34:48.365Z,98150.25
2022-09-01T13:37:17.262Z,98177.50
2022-09-01T13:39:47.209Z,98180.97
2022-09-01T13:42:20.080Z,98147.91
2022-09-01T13:44:54.088Z,98121.44
2022-09-01T13:47:29.858Z,98092.66
2022-09-01T13:50:14.054Z,98133.81
2022-09-01T13:52:55.284Z,98106.84
2022-09-01T13:55:32.428Z,98084.50
2022-09-01T13:57:59.251Z,98086.25
2022-09-01T14:00:31.913Z,98096.63
2022-09-01T14:03:02.678Z,98130.44
2022-09-01T14:05:32.433Z,98106.75
2022-09-01T14:08:00.486Z,98097.22
2022-09-01T14:10:33.915Z,98103.72
2022-09-01T14:13:01.046Z,98062.56
2022-09-01T14:15:28.200Z,98089.28
2022-09-01T14:17:56.396Z,98073.34
2022-09-01T14:20:26.182Z,98094.53
2022-09-01T14:22:55.939Z,98087.88
2022-09-01T14:25:25.407Z,98053.63
2022-09-01T14:27:53.267Z,98046.81
2022-09-01T14:30:30.489Z,98072.28
2022-09-01T14:32:59.437Z,98084.00
2022-09-01T14:35:33.641Z,98077.94
2022-09-01T14:38:02.688Z,98050.06
2022-09-01T14:40:29.453Z,98074.91
2022-09-01T14:42:58.470Z,98082.00
2022-09-01T14:45:28.672Z,98100.06
2022-09-01T14:47:58.532Z,98079.19
2022-09-01T14:50:32.506Z,98123.16
2022-09-01T14:53:01.085Z,98120.50
2022-09-01T14:55:30.249Z,98048.56
2022-09-01T14:58:00.389Z,98071.59
2022-09-01T15:00:27.571Z,98098.03
2022-09-01T15:02:57.305Z,98104.53
2022-09-01T15:05:25.424Z,98098.78
2022-09-01T15:10:25.370Z,98123.50
2022-09-01T15:13:00.463Z,98118.78
2022-09-01T15:15:27.872Z,98086.03
2022-09-01T15:17:55.840Z,98154.56
2022-09-01T15:20:42.127Z,98163.88
2022-09-01T15:23:09.020Z,98009.13
2022-09-01T15:25:35.772Z,97974.25
2022-09-01T15:28:07.059Z,97955.31
2022-09-01T15:30:36.925Z,97958.81
2022-09-01T15:33:06.909Z,97949.47
2022-09-01T15:35:34.804Z,97946.22
2022-09-01T15:38:01.562Z,97938.94
2022-09-01T15:40:30.726Z,97934.88
2022-09-01T15:42:57.925Z,97956.25
2022-09-01T15:45:25.793Z,97925.47
2022-09-01T15:47:52.885Z,97934.94
2022-09-01T15:50:24.050Z,97942.91
2022-09-01T15:53:02.825Z,97950.56
2022-09-01T15:55:41.983Z,97935.94
2022-09-01T15:58:10.550Z,97944.66
2022-09-01T16:00:42.459Z,97948.13
2022-09-01T16:03:13.842Z,97946.69
2022-09-01T16:05:41.103Z,97946.34
2022-09-01T16:08:09.502Z,97941.59
2022-09-01T16:10:38.140Z,97945.09
2022-09-01T16:13:04.695Z,97952.72
2022-09-01T16:15:31.515Z,97948.13
2022-09-01T16:18:15.594Z,97945.75
2022-09-01T16:21:14.791Z,97938.03
2022-09-01T16:23:49.157Z,97942.84
2022-09-01T16:26:17.696Z,97929.34
2022-09-01T16:28:52.750Z,97932.75
2022-09-01T16:31:29.391Z,97936.03
2022-09-01T16:34:05.139Z,97939.91
2022-09-01T16:36:50.071Z,97940.81
2022-09-01T16:39:26.433Z,97942.00
2022-09-01T16:42:13.645Z,97949.88
2022-09-01T16:44:54.075Z,97962.72
2022-09-01T16:47:34.407Z,97973.53
2022-09-01T16:50:09.244Z,97982.56
2022-09-01T16:53:14.929Z,97964.09
2022-09-01T16:56:10.342Z,97952.31
2022-09-01T16:58:52.183Z,97948.63
2022-09-01T17:01:38.744Z,97968.28
2022-09-01T17:04:38.885Z,97957.81
2022-09-01T17:07:14.568Z,97965.97
2022-09-01T17:10:12.440Z,97962.50
2022-09-01T17:12:55.986Z,97968.19
2022-09-01T17:15:38.084Z,97962.72
2022-09-01T17:18:30.531Z,97965.16
2022-09-01T17:21:08.655Z,97963.50
2022-09-01T17:23:40.739Z,97970.19
2022-09-01T17:26:27.917Z,97968.00
2022-09-01T17:29:02.914Z,97968.69
2022-09-01T17:31:57.964Z,97972.44
2022-09-01T17:34:41.811Z,97967.72
2022-09-01T17:37:28.929Z,97960.94
2022-09-01T17:40:23.114Z,97967.66
2022-09-01T17:43:12.042Z,97954.22
2022-09-01T17:45:51.324Z,97965.44
2022-09-01T17:48:27.728Z,97951.53
2022-09-01T17:51:22.643Z,97956.94
2022-09-01T17:53:58.202Z,97955.06
2022-09-01T17:56:30.896Z,97962.97
2022-09-01T17:59:22.524Z,97952.81
2022-09-01T18:02:15.868Z,97942.06
2022-09-01T18:04:52.523Z,97947.69
2022-09-01T18:07:59.224Z,97953.72
2022-09-01T18:10:38.291Z,97951.88
2022-09-01T18:13:08.980Z,97941.28
2022-09-01T18:16:05.285Z,97948.56
2022-09-01T18:18:41.780Z,97954.84
2022-09-01T18:21:16.876Z,97951.31
2022-09-01T18:23:45.902Z,97940.97
2022-09-01T18:26:29.473Z,97951.53
2022-09-01T18:28:57.149Z,97948.00
2022-09-01T18:31:50.344Z,97949.47
2022-09-01T18:34:47.432Z,97953.41
2022-09-01T18:37:34.326Z,97947.19
2022-09-01T18:40:21.366Z,97952.38
2022-09-01T18:43:14.352Z,97950.94
2022-09-01T18:45:55.763Z,97948.44
2022-09-01T18:48:23.047Z,97963.41
2022-09-01T18:51:08.432Z,97975.88
2022-09-01T18:53:43.834Z,97970.25
2022-09-01T18:56:37.410Z,97963.19
2022-09-01T18:59:17.772Z,97971.09
2022-09-01T19:01:54.312Z,97967.75
2022-09-01T19:04:42.147Z,97973.91
2022-09-01T19:07:11.772Z,97979.91
2022-09-01T19:09:49.787Z,97972.84
2022-09-01T19:12:43.984Z,97981.97
2022-09-01T19:15:13.557Z,97985.69
2022-09-01T19:18:07.817Z,97980.13
2022-09-01T19:20:41.214Z,97978.66
2022-09-01T19:23:24.178Z,97984.91
2022-09-01T19:25:56.339Z,97993.84
2022-09-01T19:28:25.218Z,97989.25
2022-09-01T19:30:57.475Z,97990.06
2022-09-01T19:33:28.800Z,97989.66
2022-09-01T19:36:02.091Z,97994.63
2022-09-01T19:38:31.614Z,97995.22
2022-09-01T19:41:11.851Z,97994.75
2022-09-01T19:43:40.324Z,98003.84
2022-09-01T19:46:20.899Z,98005.84
2022-09-01T19:48:58.132Z,97997.19
2022-09-01T19:51:32.951Z,98007.16
2022-09-01T19:54:22.924Z,98015.13
2022-09-01T19:56:58.292Z,98014.28
2022-09-01T19:59:56.377Z,98011.75
2022-09-01T20:02:45.853Z,98019.16
2022-09-01T20:05:22.830Z,98021.09
2022-09-01T20:08:23.999Z,98025.22
2022-09-01T20:11:03.078Z,98016.28
2022-09-01T20:13:44.802Z,98026.00
2022-09-01T20:16:29.926Z,98027.75
2022-09-01T20:19:06.238Z,98032.47
2022-09-01T20:21:38.927Z,98023.75
2022-09-01T20:24:09.697Z,98035.41
2022-09-01T20:26:47.337Z,98037.22
2022-09-01T20:29:26.181Z,98032.91
2022-09-01T20:31:59.083Z,98034.78
2022-09-01T20:34:39.529Z,98032.03
2022-09-01T20:37:20.882Z,98034.78
2022-09-01T20:40:13.337Z,98038.63
2022-09-01T20:43:01.366Z,98050.25
2022-09-01T20:45:31.924Z,98053.53
2022-09-01T20:48:05.138Z,98054.78
2022-09-01T20:50:43.407Z,98050.19
2022-09-01T20:53:39.446Z,98066.72
2022-09-01T20:56:18.171Z,98062.84
2022-09-01T20:58:59.987Z,98063.22
2022-09-01T21:01:43.347Z,98060.81
2022-09-01T21:04:45.074Z,98063.22
2022-09-01T21:07:58.482Z,98084.50
2022-09-01T21:10:51.000Z,98060.47
2022-09-01T21:13:46.290Z,98075.78
2022-09-01T21:16:57.427Z,98080.97
2022-09-01T21:20:12.818Z,98080.50
2022-09-01T21:23:00.987Z,98076.91
2022-09-01T21:25:49.439Z,98080.81
2022-09-01T21:28:36.355Z,98085.53
2022-09-01T21:31:24.339Z,98084.59
2022-09-01T21:34:16.252Z,98091.84
2022-09-01T21:37:03.860Z,98090.63
2022-09-01T21:39:54.118Z,98091.13
2022-09-01T21:42:55.729Z,98095.31
2022-09-01T21:45:42.743Z,98095.50
2022-09-01T21:48:30.027Z,98092.53
2022-09-01T21:54:05.094Z,98099.91
2022-09-01T21:56:53.306Z,98105.25
2022-09-01T21:59:40.286Z,98104.97
2022-09-01T22:02:32.945Z,98110.59
2022-09-01T22:05:20.871Z,98096.16
2022-09-01T22:08:12.053Z,98102.53
2022-09-01T22:11:00.061Z,98091.22
2022-09-01T22:13:48.393Z,98100.56
2022-09-01T22:16:36.310Z,98096.38
2022-09-01T22:19:23.274Z,98099.44
2022-09-01T22:22:12.951Z,98098.72
2022-09-01T22:25:00.348Z,98096.97
2022-09-01T22:27:47.389Z,98093.66
2022-09-01T22:30:35.194Z,98086.06
2022-09-01T22:33:23.360Z,98103.41
2022-09-01T22:36:10.795Z,98108.13
2022-09-01T22:38:58.906Z,98104.97
2022-09-01T22:41:46.381Z,98118.63
2022-09-01T22:44:33.289Z,98103.13
2022-09-01T22:47:20.128Z,98125.78
2022-09-01T22:50:08.823Z,98112.25
2022-09-01T22:52:55.644Z,98127.16
2022-09-01T22:55:46.508Z,98135.75
2022-09-01T22:58:33.356Z,98134.88
2022-09-01T23:01:23.423Z,98126.00
2022-09-01T23:04:15.384Z,98132.22
2022-09-01T23:07:06.240Z,98124.66
2022-09-01T23:09:53.122Z,98133.06
2022-09-01T23:12:39.986Z,98130.69
2022-09-01T23:15:29.165Z,98125.19
2022-09-01T23:18:16.008Z,98132.53
2022-09-01T23:21:04.285Z,98148.03
2022-09-01T23:23:58.373Z,98148.88
2022-09-01T23:26:45.811Z,98138.66
2022-09-01T23:29:32.741Z,98145.53
2022-09-01T23:32:19.635Z,98150.25
2022-09-01T23:35:07.285Z,98147.56
2022-09-01T23:37:54.535Z,98149.25
2022-09-01T23:40:43.605Z,98167.91
2022-09-01T23:43:30.509Z,98184.53
2022-09-01T23:46:27.112Z,98153.34
2022-09-01T23:49:16.791Z,98166.44
2022-09-01T23:52:03.745Z,98160.56
2022-09-01T23:54:50.622Z,98164.25
2022-09-01T23:57:37.481Z,98155.06
